createdAt,value
2019-01-13T00:01:22.410Z,3.33
2019-01-13T00:03:50.262Z,3.20
2019-01-13T00:06:18.093Z,3.70
2019-01-13T00:08:46.203Z,3.00
2019-01-13T00:11:14.167Z,3.23
2019-01-13T00:13:42.088Z,2.83
2019-01-13T00:16:10.089Z,2.83
2019-01-13T00:18:37.996Z,3.30
2019-01-13T00:21:05.792Z,3.10
2019-01-13T00:23:33.631Z,3.60
2019-01-13T00:26:01.653Z,3.27
2019-01-13T00:28:29.445Z,3.47
2019-01-13T00:30:57.349Z,3.63
2019-01-13T00:33:25.276Z,3.50
2019-01-13T00:35:53.077Z,2.80
2019-01-13T00:38:20.910Z,3.47
2019-01-13T00:40:48.787Z,2.93
2019-01-13T00:43:16.815Z,2.97
2019-01-13T00:45:44.745Z,2.40
2019-01-13T00:48:12.860Z,3.20
2019-01-13T00:50:40.658Z,2.90
2019-01-13T00:53:08.670Z,2.63
2019-01-13T00:55:36.600Z,2.80
2019-01-13T00:58:04.519Z,2.73
2019-01-13T01:00:32.390Z,3.03
2019-01-13T01:03:00.263Z,2.30
2019-01-13T01:05:28.152Z,2.67
2019-01-13T01:07:55.999Z,3.00
2019-01-13T01:10:23.869Z,2.40
2019-01-13T01:12:51.701Z,2.73
2019-01-13T01:15:19.558Z,2.50
2019-01-13T01:17:47.486Z,2.50
2019-01-13T01:20:15.368Z,2.70
2019-01-13T01:22:43.244Z,2.17
2019-01-13T01:25:11.855Z,3.03
2019-01-13T01:27:39.801Z,2.70
2019-01-13T01:30:17.666Z,2.90
2019-01-13T01:32:45.673Z,2.60
2019-01-13T01:35:14.899Z,2.97
2019-01-13T01:37:42.727Z,2.73
2019-01-13T01:40:12.218Z,3.20
2019-01-13T01:42:40.069Z,3.17
2019-01-13T01:45:08.776Z,3.80
2019-01-13T01:47:36.591Z,3.40
2019-01-13T01:50:05.146Z,3.67
2019-01-13T01:52:32.961Z,3.60
2019-01-13T01:55:00.849Z,3.03
2019-01-13T01:57:28.700Z,3.50
2019-01-13T01:59:56.591Z,3.57
2019-01-13T02:02:24.424Z,3.37
2019-01-13T02:04:52.336Z,3.33
2019-01-13T02:07:20.292Z,3.90
2019-01-13T02:09:48.172Z,3.47
2019-01-13T02:12:16.121Z,4.57
2019-01-13T02:14:43.992Z,3.33
2019-01-13T02:17:11.808Z,3.60
2019-01-13T02:19:39.631Z,3.80
2019-01-13T02:22:07.496Z,3.77
2019-01-13T02:24:35.301Z,4.30
2019-01-13T02:27:03.167Z,3.83
2019-01-13T02:29:30.963Z,3.80
2019-01-13T02:31:58.844Z,3.77
2019-01-13T02:34:26.766Z,3.70
2019-01-13T02:36:55.500Z,3.73
2019-01-13T02:39:23.338Z,3.40
2019-01-13T02:41:51.263Z,4.40
2019-01-13T02:44:19.130Z,3.53
2019-01-13T02:46:46.967Z,3.23
2019-01-13T02:49:14.841Z,3.23
2019-01-13T02:51:42.664Z,3.70
2019-01-13T02:54:10.483Z,3.50
2019-01-13T02:56:38.357Z,3.93
2019-01-13T02:59:06.198Z,3.67
2019-01-13T03:01:34.085Z,3.30
2019-01-13T03:04:01.916Z,3.07
2019-01-13T03:06:29.754Z,3.43
2019-01-13T03:08:57.689Z,3.50
2019-01-13T03:11:26.397Z,3.80
2019-01-13T03:13:54.260Z,3.53
2019-01-13T03:16:22.094Z,3.10
2019-01-13T03:18:50.050Z,3.67
2019-01-13T03:21:17.913Z,3.17
2019-01-13T03:23:45.793Z,3.80
2019-01-13T03:26:13.659Z,3.30
2019-01-13T03:28:41.495Z,3.20
2019-01-13T03:31:11.835Z,3.43
2019-01-13T03:33:38.865Z,3.90
2019-01-13T03:36:06.677Z,4.00
2019-01-13T03:38:34.492Z,3.73
2019-01-13T03:41:02.468Z,3.30
2019-01-13T03:43:30.512Z,3.70
2019-01-13T03:45:58.307Z,4.07
2019-01-13T03:48:26.904Z,3.77
2019-01-13T03:50:54.850Z,4.90
2019-01-13T03:53:22.691Z,3.60
2019-01-13T03:55:50.543Z,3.50
2019-01-13T03:58:18.420Z,3.60
2019-01-13T04:00:46.218Z,3.40
2019-01-13T04:03:14.069Z,3.80
2019-01-13T04:05:41.916Z,3.37
2019-01-13T04:08:09.746Z,3.80
2019-01-13T04:10:37.617Z,3.63
2019-01-13T04:13:05.498Z,3.83
2019-01-13T04:15:43.317Z,4.30
2019-01-13T04:18:11.179Z,3.53
2019-01-13T04:20:38.993Z,3.87
2019-01-13T04:23:06.896Z,4.17
2019-01-13T04:25:34.761Z,3.73
2019-01-13T04:28:02.589Z,4.03
2019-01-13T04:30:30.408Z,4.50
2019-01-13T04:32:58.200Z,4.47
2019-01-13T04:35:26.054Z,4.20
2019-01-13T04:37:53.891Z,4.63
2019-01-13T04:40:21.768Z,3.50
2019-01-13T04:42:49.603Z,3.83
2019-01-13T04:45:17.463Z,4.20
2019-01-13T04:47:45.321Z,4.03
2019-01-13T04:50:13.248Z,4.10
2019-01-13T04:52:41.155Z,3.80
2019-01-13T04:55:09.094Z,3.80
2019-01-13T04:57:37.187Z,3.97
2019-01-13T05:00:06.495Z,4.33
2019-01-13T05:02:34.422Z,3.77
2019-01-13T05:05:02.396Z,3.70
2019-01-13T05:07:30.249Z,3.80
2019-01-13T05:09:58.219Z,3.73
2019-01-13T05:12:27.811Z,4.17
2019-01-13T05:14:55.686Z,4.30
2019-01-13T05:17:23.601Z,3.83
2019-01-13T05:19:51.432Z,4.40
2019-01-13T05:22:19.243Z,3.33
2019-01-13T05:24:47.133Z,3.70
2019-01-13T05:27:14.978Z,4.03
2019-01-13T05:29:42.844Z,4.00
2019-01-13T05:32:10.724Z,3.80
2019-01-13T05:34:38.659Z,3.50
2019-01-13T05:37:06.575Z,3.70
2019-01-13T05:39:34.411Z,4.20
2019-01-13T05:42:02.252Z,3.93
2019-01-13T05:44:30.136Z,4.30
2019-01-13T05:46:57.961Z,4.27
2019-01-13T05:49:25.901Z,4.20
2019-01-13T05:51:53.716Z,4.20
2019-01-13T05:54:21.541Z,4.63
2019-01-13T05:56:49.379Z,4.23
2019-01-13T05:59:17.228Z,4.20
2019-01-13T06:01:49.168Z,4.40
2019-01-13T06:04:14.635Z,4.20
2019-01-13T06:06:42.517Z,3.90
2019-01-13T06:09:10.386Z,4.30
2019-01-13T06:11:38.245Z,4.07
2019-01-13T06:14:08.199Z,4.00
2019-01-13T06:16:36.025Z,4.90
2019-01-13T06:19:04.085Z,4.00
2019-01-13T06:21:31.934Z,3.30
2019-01-13T06:23:59.761Z,3.40
2019-01-13T06:26:27.647Z,3.57
2019-01-13T06:28:56.275Z,3.53
2019-01-13T06:31:24.292Z,3.23
2019-01-13T06:33:52.091Z,2.77
2019-01-13T06:36:19.919Z,3.13
2019-01-13T06:38:47.791Z,2.80
2019-01-13T06:41:15.640Z,2.77
2019-01-13T06:43:43.509Z,3.73
2019-01-13T06:46:11.466Z,2.63
2019-01-13T06:48:39.285Z,2.83
2019-01-13T06:51:07.401Z,2.30
2019-01-13T06:53:35.182Z,3.30
2019-01-13T06:56:03.011Z,2.57
2019-01-13T06:58:30.865Z,2.47
2019-01-13T07:00:58.683Z,2.40
2019-01-13T07:03:26.719Z,2.40
2019-01-13T07:05:54.551Z,2.30
2019-01-13T07:08:22.368Z,1.93
2019-01-13T07:10:50.222Z,2.77
2019-01-13T07:13:18.006Z,2.00
2019-01-13T07:15:45.876Z,2.60
2019-01-13T07:18:13.758Z,2.37
2019-01-13T07:20:41.649Z,2.20
2019-01-13T07:23:09.578Z,1.80
2019-01-13T07:25:37.421Z,1.80
2019-01-13T07:28:05.392Z,1.77
2019-01-13T07:30:33.240Z,1.60
2019-01-13T07:33:01.083Z,2.00
2019-01-13T07:35:28.939Z,1.63
2019-01-13T07:37:56.804Z,1.57
2019-01-13T07:40:24.797Z,1.70
2019-01-13T07:42:53.030Z,1.67
2019-01-13T07:45:24.445Z,1.60
2019-01-13T07:47:52.608Z,1.50
2019-01-13T07:50:20.577Z,1.30
2019-01-13T07:52:48.481Z,1.00
2019-01-13T07:55:17.130Z,1.33
2019-01-13T07:57:45.013Z,1.00
2019-01-13T08:00:14.654Z,1.23
2019-01-13T08:02:42.545Z,1.20
2019-01-13T08:05:10.352Z,0.90
2019-01-13T08:07:38.204Z,0.80
2019-01-13T08:10:07.547Z,0.90
2019-01-13T08:12:35.333Z,0.93
2019-01-13T08:15:04.325Z,0.70
2019-01-13T08:17:32.150Z,1.00
2019-01-13T08:20:01.771Z,1.00
2019-01-13T08:22:29.960Z,0.80
2019-01-13T08:24:57.833Z,0.83
2019-01-13T08:27:25.633Z,0.87
2019-01-13T08:29:53.514Z,0.90
2019-01-13T08:32:25.069Z,0.90
2019-01-13T08:34:51.043Z,0.90
2019-01-13T08:37:18.947Z,0.83
2019-01-13T08:39:46.786Z,0.80
2019-01-13T08:42:14.632Z,0.93
2019-01-13T08:44:42.472Z,0.67
2019-01-13T08:47:10.311Z,0.80
2019-01-13T08:49:38.222Z,0.67
2019-01-13T08:52:06.040Z,0.80
2019-01-13T08:54:33.856Z,0.70
2019-01-13T08:57:01.755Z,0.87
2019-01-13T08:59:29.544Z,1.07
2019-01-13T09:01:58.568Z,0.93
2019-01-13T09:04:26.445Z,1.63
2019-01-13T09:06:54.430Z,0.80
2019-01-13T09:09:22.304Z,0.73
2019-01-13T09:11:50.127Z,1.23
2019-01-13T09:14:18.201Z,1.20
2019-01-13T09:16:46.078Z,1.10
2019-01-13T09:19:13.938Z,1.20
2019-01-13T09:21:41.767Z,1.30
2019-01-13T09:24:09.588Z,1.10
2019-01-13T09:26:38.855Z,1.40
2019-01-13T09:29:06.889Z,1.00
2019-01-13T09:31:34.764Z,1.10
2019-01-13T09:34:02.654Z,1.10
2019-01-13T09:36:30.629Z,0.90
2019-01-13T09:38:58.485Z,1.20
2019-01-13T09:41:26.418Z,1.00
2019-01-13T09:43:54.260Z,0.90
2019-01-13T09:46:22.131Z,1.40
2019-01-13T09:48:49.999Z,0.73
2019-01-13T09:51:17.952Z,1.00
2019-01-13T09:53:45.818Z,1.03
2019-01-13T09:56:13.734Z,1.10
2019-01-13T09:58:41.557Z,1.00
2019-01-13T10:01:10.385Z,1.27
2019-01-13T10:03:38.336Z,1.13
2019-01-13T10:06:06.136Z,1.10
2019-01-13T10:08:33.970Z,1.10
2019-01-13T10:11:01.945Z,1.40
2019-01-13T10:13:29.763Z,1.10
2019-01-13T10:15:57.649Z,1.17
2019-01-13T10:18:25.470Z,1.20
2019-01-13T10:20:53.267Z,1.43
2019-01-13T10:23:21.153Z,1.10
2019-01-13T10:25:49.005Z,1.10
2019-01-13T10:28:16.825Z,1.50
2019-01-13T10:30:44.683Z,1.60
2019-01-13T10:33:12.517Z,1.10
2019-01-13T10:35:40.464Z,1.47
2019-01-13T10:38:08.292Z,1.80
2019-01-13T10:40:36.138Z,1.10
2019-01-13T10:43:04.052Z,1.50
2019-01-13T10:45:31.902Z,1.00
2019-01-13T10:47:59.779Z,1.13
2019-01-13T10:50:28.460Z,1.30
2019-01-13T10:52:57.165Z,1.00
2019-01-13T10:55:25.045Z,1.03
2019-01-13T10:57:52.948Z,0.90
2019-01-13T11:00:25.008Z,1.10
2019-01-13T11:02:52.908Z,1.30
2019-01-13T11:05:20.728Z,1.10
2019-01-13T11:07:48.686Z,0.93
2019-01-13T11:10:16.568Z,1.10
2019-01-13T11:12:44.461Z,0.90
2019-01-13T11:15:12.709Z,0.93
2019-01-13T11:17:40.730Z,0.90
2019-01-13T11:20:10.735Z,1.10
2019-01-13T11:22:38.648Z,1.10
2019-01-13T11:25:06.804Z,1.10
2019-01-13T11:27:38.610Z,1.13
2019-01-13T11:30:07.575Z,1.23
2019-01-13T11:32:36.099Z,1.03
2019-01-13T11:35:04.793Z,1.20
2019-01-13T11:37:33.041Z,1.20
2019-01-13T11:40:01.248Z,1.10
2019-01-13T11:42:29.512Z,0.97
2019-01-13T11:44:57.641Z,1.10
2019-01-13T11:47:25.545Z,1.33
2019-01-13T11:49:55.381Z,1.50
2019-01-13T11:52:23.291Z,1.40
2019-01-13T11:54:51.087Z,1.10
2019-01-13T11:57:19.046Z,1.20
2019-01-13T11:59:46.938Z,1.27
2019-01-13T12:02:16.610Z,1.40
2019-01-13T12:04:44.657Z,1.40
2019-01-13T12:07:12.703Z,1.23
2019-01-13T12:09:40.639Z,1.30
2019-01-13T12:12:08.612Z,1.00
2019-01-13T12:14:36.531Z,0.90
2019-01-13T12:17:04.388Z,1.37
2019-01-13T12:19:32.235Z,1.00
2019-01-13T12:22:00.303Z,1.33
2019-01-13T12:24:28.504Z,1.03
2019-01-13T12:26:56.388Z,1.60
2019-01-13T12:29:24.260Z,1.50
2019-01-13T12:31:52.206Z,1.20
2019-01-13T12:34:20.249Z,1.03
2019-01-13T12:36:48.106Z,1.40
2019-01-13T12:39:16.964Z,1.57
2019-01-13T12:41:44.859Z,1.70
2019-01-13T12:44:12.802Z,1.13
2019-01-13T12:46:40.617Z,1.37
2019-01-13T12:49:08.604Z,1.47
2019-01-13T12:51:36.496Z,1.47
2019-01-13T12:54:05.046Z,1.20
2019-01-13T12:56:33.006Z,1.37
2019-01-13T12:59:00.854Z,1.07
2019-01-13T13:01:28.697Z,1.40
2019-01-13T13:03:56.553Z,1.20
2019-01-13T13:06:24.455Z,1.47
2019-01-13T13:08:52.433Z,1.20
2019-01-13T13:11:20.252Z,1.77
2019-01-13T13:13:48.156Z,1.77
2019-01-13T13:16:16.318Z,1.50
2019-01-13T13:18:44.187Z,1.30
2019-01-13T13:21:12.058Z,1.53
2019-01-13T13:23:39.904Z,1.10
2019-01-13T13:26:07.846Z,1.60
2019-01-13T13:28:35.720Z,1.70
2019-01-13T13:31:03.595Z,1.70
2019-01-13T13:33:38.468Z,1.70
2019-01-13T13:36:01.081Z,1.50
2019-01-13T13:38:29.082Z,1.60
2019-01-13T13:40:56.948Z,1.30
2019-01-13T13:43:33.452Z,1.87
2019-01-13T13:46:02.110Z,1.77
2019-01-13T13:48:30.116Z,2.10
2019-01-13T13:50:58.300Z,1.80
2019-01-13T13:53:26.454Z,1.90
2019-01-13T13:55:54.310Z,1.73
2019-01-13T13:58:22.309Z,1.70
2019-01-13T14:00:50.179Z,1.60
2019-01-13T14:03:18.224Z,2.07
2019-01-13T14:05:46.185Z,2.10
2019-01-13T14:08:14.150Z,2.07
2019-01-13T14:10:42.853Z,2.00
2019-01-13T14:13:10.920Z,2.00
2019-01-13T14:15:38.794Z,2.43
2019-01-13T14:18:06.700Z,2.43
2019-01-13T14:20:34.592Z,2.53
2019-01-13T14:23:02.553Z,2.17
2019-01-13T14:25:30.457Z,2.67
2019-01-13T14:27:58.494Z,2.20
2019-01-13T14:30:26.640Z,2.60
2019-01-13T14:32:54.596Z,2.70
2019-01-13T14:35:22.505Z,2.97
2019-01-13T14:37:50.343Z,3.03
2019-01-13T14:40:20.425Z,2.53
2019-01-13T14:42:48.707Z,2.77
2019-01-13T14:45:18.330Z,3.03
2019-01-13T14:47:46.319Z,3.27
2019-01-13T14:50:15.610Z,2.50
2019-01-13T14:52:43.452Z,3.57
2019-01-13T14:55:11.356Z,2.90
2019-01-13T14:57:39.510Z,3.00
2019-01-13T15:00:09.937Z,2.80
2019-01-13T15:02:37.814Z,3.10
2019-01-13T15:05:05.894Z,3.03
2019-01-13T15:07:33.781Z,3.00
2019-01-13T15:10:01.610Z,2.97
2019-01-13T15:12:29.488Z,3.60
2019-01-13T15:14:57.366Z,3.17
2019-01-13T15:17:25.158Z,3.20
2019-01-13T15:19:53.061Z,3.00
2019-01-13T15:22:20.886Z,2.97
2019-01-13T15:24:48.970Z,2.73
2019-01-13T15:27:16.879Z,2.37
2019-01-13T15:29:44.796Z,2.77
2019-01-13T15:32:12.754Z,2.93
2019-01-13T15:34:40.698Z,2.77
2019-01-13T15:37:08.644Z,3.27
2019-01-13T15:39:36.515Z,2.30
2019-01-13T15:42:04.312Z,2.70
2019-01-13T15:44:32.210Z,2.63
2019-01-13T15:47:00.045Z,3.23
2019-01-13T15:49:28.003Z,2.40
2019-01-13T15:51:55.879Z,3.17
2019-01-13T15:54:23.736Z,2.20
2019-01-13T15:56:51.657Z,3.00
2019-01-13T15:59:19.541Z,2.70
2019-01-13T16:01:47.406Z,3.50
2019-01-13T16:04:15.247Z,2.73
2019-01-13T16:06:43.093Z,2.80
2019-01-13T16:09:10.991Z,2.87
2019-01-13T16:11:38.941Z,3.60
2019-01-13T16:14:06.919Z,3.23
2019-01-13T16:16:34.786Z,3.50
2019-01-13T16:19:02.688Z,2.70
2019-01-13T16:21:30.722Z,2.77
2019-01-13T16:23:58.614Z,3.53
2019-01-13T16:26:26.712Z,2.70
2019-01-13T16:28:54.696Z,2.67
2019-01-13T16:31:22.611Z,2.90
2019-01-13T16:33:50.488Z,2.40
2019-01-13T16:36:18.368Z,2.77
2019-01-13T16:38:46.337Z,2.50
2019-01-13T16:41:14.421Z,3.00
2019-01-13T16:43:42.593Z,2.60
2019-01-13T16:46:10.563Z,2.57
2019-01-13T16:48:38.444Z,2.20
2019-01-13T16:51:06.322Z,2.43
2019-01-13T16:53:34.267Z,2.30
2019-01-13T16:56:02.203Z,2.80
2019-01-13T16:58:30.169Z,2.30
2019-01-13T17:00:58.095Z,2.40
2019-01-13T17:03:26.165Z,2.40
2019-01-13T17:05:54.396Z,2.00
2019-01-13T17:08:22.340Z,2.37
2019-01-13T17:10:50.505Z,2.47
2019-01-13T17:13:18.481Z,2.03
2019-01-13T17:15:46.385Z,2.40
2019-01-13T17:18:14.480Z,2.67
2019-01-13T17:20:42.309Z,2.60
2019-01-13T17:23:10.168Z,2.30
2019-01-13T17:25:38.135Z,2.70
2019-01-13T17:28:07.303Z,2.70
2019-01-13T17:30:37.757Z,2.60
2019-01-13T17:33:05.761Z,2.87
2019-01-13T17:35:36.364Z,2.83
2019-01-13T17:38:04.487Z,2.20
2019-01-13T17:40:32.330Z,3.50
2019-01-13T17:43:00.264Z,20.37
2019-01-13T17:45:28.993Z,25.17
2019-01-13T17:47:56.948Z,14.70
2019-01-13T17:50:25.300Z,4.73
2019-01-13T17:52:53.181Z,4.70
2019-01-13T17:55:21.974Z,3.93
2019-01-13T17:57:49.950Z,3.83
2019-01-13T18:00:28.058Z,2.90
2019-01-13T18:02:56.443Z,3.13
2019-01-13T18:05:24.283Z,2.83
2019-01-13T18:07:52.155Z,2.87
2019-01-13T18:10:20.097Z,3.03
2019-01-13T18:12:48.135Z,3.20
2019-01-13T18:15:16.113Z,3.10
2019-01-13T18:17:43.963Z,3.20
2019-01-13T18:20:13.433Z,2.93
2019-01-13T18:22:42.686Z,3.57
2019-01-13T18:25:10.571Z,3.33
2019-01-13T18:27:38.606Z,3.00
2019-01-13T18:30:10.130Z,3.27
2019-01-13T18:32:38.075Z,2.93
2019-01-13T18:35:07.081Z,3.13
2019-01-13T18:37:35.027Z,3.00
2019-01-13T18:40:02.862Z,3.33
2019-01-13T18:42:30.808Z,3.47
2019-01-13T18:44:58.748Z,3.10
2019-01-13T18:47:26.639Z,4.27
2019-01-13T18:49:54.715Z,3.30
2019-01-13T18:52:22.633Z,3.13
2019-01-13T18:54:50.725Z,3.70
2019-01-13T18:57:18.564Z,3.60
2019-01-13T18:59:46.384Z,3.67
2019-01-13T19:02:14.259Z,3.73
2019-01-13T19:04:42.248Z,3.87
2019-01-13T19:07:10.247Z,4.33
2019-01-13T19:09:38.151Z,4.00
2019-01-13T19:12:05.976Z,3.60
2019-01-13T19:14:35.321Z,3.60
2019-01-13T19:17:04.567Z,3.10
2019-01-13T19:19:37.641Z,3.00
2019-01-13T19:22:05.794Z,2.97
2019-01-13T19:24:33.639Z,2.90
2019-01-13T19:27:01.553Z,3.00
2019-01-13T19:29:29.424Z,2.60
2019-01-13T19:31:57.260Z,2.00
2019-01-13T19:34:25.153Z,1.83
2019-01-13T19:36:53.112Z,1.70
2019-01-13T19:39:21.080Z,2.37
2019-01-13T19:41:48.946Z,2.43
2019-01-13T19:44:16.987Z,2.20
2019-01-13T19:46:44.893Z,1.33
2019-01-13T19:49:12.940Z,1.50
2019-01-13T19:51:40.839Z,1.73
2019-01-13T19:54:08.813Z,1.47
2019-01-13T19:56:36.707Z,1.43
2019-01-13T19:59:04.741Z,1.50
2019-01-13T20:01:32.643Z,1.30
2019-01-13T20:04:00.492Z,1.63
2019-01-13T20:06:28.530Z,1.10
2019-01-13T20:08:56.386Z,1.50
2019-01-13T20:11:24.255Z,1.50
2019-01-13T20:13:52.137Z,1.50
2019-01-13T20:16:20.019Z,1.80
2019-01-13T20:18:47.870Z,1.43
2019-01-13T20:21:15.742Z,1.70
2019-01-13T20:23:43.634Z,1.90
2019-01-13T20:26:11.589Z,1.93
2019-01-13T20:28:39.510Z,1.30
2019-01-13T20:31:07.373Z,1.63
2019-01-13T20:33:35.241Z,1.30
2019-01-13T20:36:03.130Z,1.37
2019-01-13T20:38:31.072Z,2.03
2019-01-13T20:40:59.002Z,1.60
2019-01-13T20:43:27.002Z,1.60
2019-01-13T20:45:54.948Z,1.50
2019-01-13T20:48:22.834Z,1.63
2019-01-13T20:50:50.766Z,1.30
2019-01-13T20:53:18.610Z,1.30
2019-01-13T20:55:46.560Z,1.50
2019-01-13T20:58:14.507Z,1.13
2019-01-13T21:00:42.347Z,1.07
2019-01-13T21:03:10.457Z,1.07
2019-01-13T21:05:38.311Z,1.00
2019-01-13T21:08:06.203Z,1.27
2019-01-13T21:10:34.151Z,1.23
2019-01-13T21:13:01.980Z,1.27
2019-01-13T21:15:31.293Z,1.50
2019-01-13T21:17:59.141Z,1.40
2019-01-13T21:20:27.108Z,1.10
2019-01-13T21:22:54.979Z,1.60
2019-01-13T21:25:22.932Z,1.40
2019-01-13T21:27:50.885Z,1.70
2019-01-13T21:30:19.993Z,1.50
2019-01-13T21:32:47.966Z,1.53
2019-01-13T21:35:15.827Z,1.37
2019-01-13T21:37:43.715Z,1.67
2019-01-13T21:40:11.831Z,1.50
2019-01-13T21:42:39.725Z,1.80
2019-01-13T21:45:08.773Z,1.70
2019-01-13T21:47:36.685Z,1.80
2019-01-13T21:50:05.279Z,1.70
2019-01-13T21:52:33.123Z,1.50
2019-01-13T21:55:01.030Z,1.80
2019-01-13T21:57:28.930Z,2.17
2019-01-13T21:59:56.842Z,1.83
2019-01-13T22:02:24.680Z,2.30
2019-01-13T22:04:52.591Z,2.07
2019-01-13T22:07:20.440Z,1.90
2019-01-13T22:09:48.396Z,1.93
2019-01-13T22:12:16.426Z,1.90
2019-01-13T22:14:44.368Z,2.90
2019-01-13T22:17:12.432Z,2.33
2019-01-13T22:19:40.429Z,1.70
2019-01-13T22:22:08.296Z,1.77
2019-01-13T22:24:36.240Z,1.77
2019-01-13T22:27:04.182Z,1.90
2019-01-13T22:29:32.070Z,2.10
2019-01-13T22:31:59.986Z,1.90
2019-01-13T22:34:27.921Z,2.10
2019-01-13T22:36:55.803Z,2.10
2019-01-13T22:39:23.640Z,2.17
2019-01-13T22:41:51.504Z,2.33
2019-01-13T22:44:19.364Z,1.90
2019-01-13T22:46:47.196Z,1.87
2019-01-13T22:49:15.039Z,1.77
2019-01-13T22:51:42.938Z,1.80
2019-01-13T22:54:10.851Z,1.97
2019-01-13T22:56:38.793Z,1.90
2019-01-13T22:59:06.669Z,1.93
2019-01-13T23:01:40.388Z,1.60
2019-01-13T23:04:09.099Z,1.83
2019-01-13T23:06:36.958Z,2.20
2019-01-13T23:09:07.705Z,2.10
2019-01-13T23:11:35.571Z,1.60
2019-01-13T23:14:03.524Z,1.87
2019-01-13T23:16:31.441Z,1.70
2019-01-13T23:18:59.307Z,1.87
2019-01-13T23:21:27.169Z,2.20
2019-01-13T23:23:55.090Z,1.67
2019-01-13T23:26:22.987Z,1.90
2019-01-13T23:28:50.819Z,1.40
2019-01-13T23:31:18.678Z,1.47
2019-01-13T23:33:46.568Z,1.33
2019-01-13T23:36:14.415Z,1.30
2019-01-13T23:38:42.293Z,1.13
2019-01-13T23:41:10.172Z,1.33
2019-01-13T23:43:38.004Z,0.90
2019-01-13T23:46:05.903Z,1.20
2019-01-13T23:48:33.738Z,1.43
2019-01-13T23:51:01.633Z,1.27
2019-01-13T23:53:29.514Z,1.17
2019-01-13T23:55:57.322Z,1.10
2019-01-13T23:58:25.255Z,1.37
